South Berwick, Maine
Current Conditions -  °F | °C
As of 9:51 PM on Sunday 21 Dec 2014 (Local Time) from KDAW Reporting Station
Overcast Overcast  
Wind Chill: 25°   Ceiling: 5500
Heat Index: 30°   Visibility: 10mi
Dew Point: 21°   Wind: 5mph
Humidity: 69%   Direction: 350°N
Pressure: 30.36"   Gusts: NA
Location:  43.23°N, 70.81°W
Report Text: KDAW 220251Z AUTO 35004KT 10SM OVC055 M01/M06 A3036 RMK AO2 SLP281 T10111061 53003
Loading
Personal Weather Stations






























Interactive Weather Map New forecast layout! Learn more

10-Day Weather Forecast

Advertisements
Track Severe Weather on mobile